createdAt,value
2022-09-24T00:00:06.363Z,12.90
2022-09-24T00:02:35.103Z,9.33
2022-09-24T00:05:05.367Z,9.93
2022-09-24T00:07:34.194Z,8.37
2022-09-24T00:10:03.206Z,9.93
2022-09-24T00:12:32.109Z,9.30
2022-09-24T00:15:00.648Z,10.70
2022-09-24T00:17:29.216Z,11.03
2022-09-24T00:19:59.824Z,10.07
2022-09-24T00:22:30.053Z,15.07
2022-09-24T00:25:16.298Z,12.63
2022-09-24T00:27:45.051Z,10.90
2022-09-24T00:30:14.258Z,8.80
2022-09-24T00:32:42.851Z,10.20
2022-09-24T00:35:11.612Z,9.43
2022-09-24T00:37:41.740Z,8.70
2022-09-24T00:40:11.346Z,10.37
2022-09-24T00:42:40.121Z,13.40
2022-09-24T00:45:10.977Z,9.30
2022-09-24T00:47:40.912Z,12.70
2022-09-24T00:50:12.680Z,10.17
2022-09-24T00:52:45.707Z,11.77
2022-09-24T00:55:15.051Z,12.83
2022-09-24T00:57:44.180Z,14.20
2022-09-24T01:00:13.711Z,9.30
2022-09-24T01:02:45.225Z,16.23
2022-09-24T01:05:14.332Z,10.17
2022-09-24T01:07:44.779Z,8.63
2022-09-24T01:10:35.010Z,10.03
2022-09-24T01:13:07.508Z,8.60
2022-09-24T01:15:41.159Z,9.73
2022-09-24T01:18:15.794Z,8.57
2022-09-24T01:20:52.575Z,9.97
2022-09-24T01:23:47.759Z,10.53
2022-09-24T01:26:23.111Z,6.97
2022-09-24T01:28:59.631Z,11.30
2022-09-24T01:31:32.917Z,13.43
2022-09-24T01:34:05.658Z,9.83
2022-09-24T01:36:35.926Z,9.43
2022-09-24T01:39:05.788Z,9.10
2022-09-24T01:41:34.701Z,12.07
2022-09-24T01:44:05.161Z,8.97
2022-09-24T01:46:35.475Z,10.07
2022-09-24T01:49:04.091Z,9.87
2022-09-24T01:51:36.211Z,10.87
2022-09-24T01:54:07.669Z,13.40
2022-09-24T01:56:40.494Z,15.27
2022-09-24T01:59:12.133Z,10.13
2022-09-24T02:01:44.465Z,8.20
2022-09-24T02:04:14.623Z,12.50
2022-09-24T02:06:47.503Z,11.30
2022-09-24T02:09:30.934Z,9.47
2022-09-24T02:12:01.142Z,13.30
2022-09-24T02:14:31.226Z,11.03
2022-09-24T02:17:03.189Z,10.90
2022-09-24T02:19:32.412Z,9.50
2022-09-24T02:22:01.715Z,11.90
2022-09-24T02:24:33.941Z,13.70
2022-09-24T02:27:02.741Z,10.87
2022-09-24T02:29:31.994Z,9.73
2022-09-24T02:32:02.571Z,14.80
2022-09-24T02:34:33.437Z,12.70
2022-09-24T02:37:05.259Z,9.23
2022-09-24T02:39:33.973Z,8.83
2022-09-24T02:42:03.257Z,8.37
2022-09-24T02:44:32.109Z,8.60
2022-09-24T02:47:02.173Z,10.97
2022-09-24T02:49:30.766Z,9.83
2022-09-24T02:51:59.457Z,9.17
2022-09-24T02:54:28.078Z,11.60
2022-09-24T02:56:56.751Z,10.70
2022-09-24T02:59:25.532Z,12.90
2022-09-24T03:01:54.653Z,12.77
2022-09-24T03:04:25.291Z,10.37
2022-09-24T03:06:53.882Z,12.13
2022-09-24T03:09:22.616Z,10.43
2022-09-24T03:11:51.292Z,9.30
2022-09-24T03:14:20.135Z,19.17
2022-09-24T03:16:48.835Z,10.53
2022-09-24T03:19:17.370Z,10.20
2022-09-24T03:21:47.374Z,9.10
2022-09-24T03:24:16.001Z,12.17
2022-09-24T03:26:45.507Z,8.47
2022-09-24T03:29:14.230Z,9.50
2022-09-24T03:31:42.000Z,13.20
2022-09-24T03:34:10.952Z,9.23
2022-09-24T03:36:39.582Z,10.40
2022-09-24T03:39:09.770Z,9.33
2022-09-24T03:41:38.631Z,9.80
2022-09-24T03:44:07.592Z,11.57
2022-09-24T03:46:36.383Z,10.07
2022-09-24T03:49:04.966Z,8.33
2022-09-24T03:51:33.494Z,8.27
2022-09-24T03:54:02.150Z,11.17
2022-09-24T03:56:32.404Z,9.17
2022-09-24T03:59:01.232Z,9.13
2022-09-24T04:01:33.357Z,8.83
2022-09-24T04:04:03.217Z,8.90
2022-09-24T04:06:31.924Z,13.53
2022-09-24T04:09:00.808Z,10.07
2022-09-24T04:11:30.682Z,8.07
2022-09-24T04:14:01.047Z,9.23
2022-09-24T04:16:29.869Z,6.60
2022-09-24T04:18:58.707Z,12.07
2022-09-24T04:21:27.294Z,8.17
2022-09-24T04:23:55.890Z,9.00
2022-09-24T04:26:24.678Z,8.30
2022-09-24T04:28:53.571Z,16.43
2022-09-24T04:31:23.697Z,9.37
2022-09-24T04:33:52.252Z,12.20
2022-09-24T04:36:20.895Z,10.50
2022-09-24T04:38:50.268Z,12.60
2022-09-24T04:41:19.451Z,12.20
2022-09-24T04:43:48.102Z,9.67
2022-09-24T04:46:19.199Z,7.90
2022-09-24T04:48:50.140Z,9.60
2022-09-24T04:51:19.401Z,7.87
2022-09-24T04:53:50.956Z,9.33
2022-09-24T04:56:19.594Z,7.17
2022-09-24T04:58:51.676Z,11.70
2022-09-24T05:01:20.999Z,8.57
2022-09-24T05:03:50.971Z,13.00
2022-09-24T05:06:19.512Z,10.57
2022-09-24T05:08:48.069Z,8.67
2022-09-24T05:11:16.741Z,11.93
2022-09-24T05:13:45.602Z,11.93
2022-09-24T05:16:14.290Z,7.70
2022-09-24T05:18:43.948Z,12.83
2022-09-24T05:21:14.169Z,9.67
2022-09-24T05:23:42.805Z,9.07
2022-09-24T05:26:28.998Z,13.50
2022-09-24T05:28:57.618Z,9.80
2022-09-24T05:31:26.516Z,11.40
2022-09-24T05:33:55.375Z,7.00
2022-09-24T05:36:27.027Z,11.03
2022-09-24T05:38:55.621Z,10.73
2022-09-24T05:41:24.857Z,8.20
2022-09-24T05:43:53.477Z,9.00
2022-09-24T05:46:22.480Z,11.50
2022-09-24T05:48:51.220Z,13.27
2022-09-24T05:51:20.271Z,8.30
2022-09-24T05:53:50.914Z,8.43
2022-09-24T05:56:19.512Z,11.00
2022-09-24T05:58:50.302Z,10.30
2022-09-24T06:01:19.089Z,16.73
2022-09-24T06:03:47.814Z,9.30
2022-09-24T06:06:16.688Z,9.83
2022-09-24T06:08:45.345Z,9.97
2022-09-24T06:11:15.259Z,7.43
2022-09-24T06:13:44.004Z,10.40
2022-09-24T06:16:13.694Z,8.20
2022-09-24T06:18:42.877Z,8.40
2022-09-24T06:21:13.036Z,7.67
2022-09-24T06:23:42.446Z,9.37
2022-09-24T06:26:12.700Z,11.23
2022-09-24T06:28:43.288Z,9.20
2022-09-24T06:31:12.555Z,6.43
2022-09-24T06:33:42.474Z,9.00
2022-09-24T06:36:12.246Z,10.50
2022-09-24T06:38:41.317Z,8.80
2022-09-24T06:41:10.170Z,8.07
2022-09-24T06:43:39.715Z,12.90
2022-09-24T06:46:18.115Z,11.37
2022-09-24T06:48:46.715Z,9.80
2022-09-24T06:51:15.647Z,11.17
2022-09-24T06:53:44.706Z,7.07
2022-09-24T06:56:13.751Z,9.48
2022-09-24T06:58:42.571Z,9.23
2022-09-24T07:01:11.754Z,9.70
2022-09-24T07:03:44.970Z,8.87
2022-09-24T07:06:13.665Z,8.40
2022-09-24T07:08:43.381Z,9.07
2022-09-24T07:11:13.326Z,7.93
2022-09-24T07:13:42.235Z,36.43
2022-09-24T07:16:11.005Z,7.83
2022-09-24T07:18:40.264Z,7.97
2022-09-24T07:21:10.292Z,11.53
2022-09-24T07:23:39.329Z,12.00
2022-09-24T07:26:08.165Z,8.83
2022-09-24T07:28:36.701Z,11.63
2022-09-24T07:31:05.321Z,7.97
2022-09-24T07:33:33.939Z,7.53
2022-09-24T07:36:06.783Z,8.67
2022-09-24T07:38:37.292Z,6.73
2022-09-24T07:41:09.520Z,7.87
2022-09-24T07:43:40.239Z,6.77
2022-09-24T07:46:10.711Z,9.27
2022-09-24T07:48:40.103Z,9.40
2022-09-24T07:51:11.360Z,9.07
2022-09-24T07:53:42.421Z,10.27
2022-09-24T07:56:11.170Z,6.10
2022-09-24T07:58:42.090Z,6.10
2022-09-24T08:01:11.047Z,7.33
2022-09-24T08:03:40.954Z,9.77
2022-09-24T08:06:09.673Z,7.13
2022-09-24T08:08:39.764Z,5.90
2022-09-24T08:11:10.702Z,7.30
2022-09-24T08:13:39.377Z,12.23
2022-09-24T08:16:08.502Z,7.07
2022-09-24T08:18:37.229Z,9.13
2022-09-24T08:21:06.443Z,6.93
2022-09-24T08:23:35.057Z,7.03
2022-09-24T08:26:03.889Z,6.33
2022-09-24T08:28:34.496Z,8.93
2022-09-24T08:31:04.109Z,6.70
2022-09-24T08:33:34.238Z,6.93
2022-09-24T08:36:03.475Z,11.13
2022-09-24T08:38:32.208Z,15.30
2022-09-24T08:41:07.173Z,7.00
2022-09-24T08:43:44.128Z,12.67
2022-09-24T08:46:33.921Z,7.83
2022-09-24T08:49:03.516Z,8.83
2022-09-24T08:51:36.520Z,7.70
2022-09-24T08:54:07.744Z,7.70
2022-09-24T08:56:37.791Z,8.30
2022-09-24T08:59:12.707Z,11.47
2022-09-24T09:01:45.981Z,9.40
2022-09-24T09:04:25.802Z,7.10
2022-09-24T09:07:01.851Z,8.90
2022-09-24T09:09:35.557Z,8.20
2022-09-24T09:12:05.768Z,11.37
2022-09-24T09:14:42.211Z,7.80
2022-09-24T09:17:17.596Z,10.10
2022-09-24T09:19:53.528Z,9.17
2022-09-24T09:22:24.988Z,7.33
2022-09-24T09:24:54.430Z,8.43
2022-09-24T09:27:23.420Z,9.47
2022-09-24T09:29:56.383Z,7.97
2022-09-24T09:32:31.279Z,7.20
2022-09-24T09:35:02.738Z,6.27
2022-09-24T09:37:33.983Z,9.40
2022-09-24T09:40:11.444Z,7.73
2022-09-24T09:42:41.143Z,10.73
2022-09-24T09:45:24.137Z,10.93
2022-09-24T09:47:57.278Z,7.10
2022-09-24T09:50:28.204Z,7.10
2022-09-24T09:52:57.573Z,11.97
2022-09-24T09:55:27.524Z,8.00
2022-09-24T09:58:11.461Z,9.20
2022-09-24T10:00:41.846Z,9.53
2022-09-24T10:03:23.264Z,7.63
2022-09-24T10:05:54.265Z,8.27
2022-09-24T10:08:23.829Z,10.67
2022-09-24T10:10:56.301Z,8.20
2022-09-24T10:13:24.927Z,8.97
2022-09-24T10:15:56.027Z,7.57
2022-09-24T10:18:29.760Z,7.40
2022-09-24T10:20:59.213Z,10.00
2022-09-24T10:23:33.303Z,8.50
2022-09-24T10:26:03.349Z,8.30
2022-09-24T10:28:51.285Z,11.30
2022-09-24T10:31:23.719Z,9.10
2022-09-24T10:33:54.065Z,12.03
2022-09-24T10:36:24.529Z,8.40
2022-09-24T10:39:03.953Z,6.33
2022-09-24T10:41:33.469Z,11.47
2022-09-24T10:44:03.749Z,11.50
2022-09-24T10:46:52.405Z,9.33
2022-09-24T10:49:30.117Z,13.70
2022-09-24T10:52:02.070Z,6.90
2022-09-24T10:54:43.306Z,8.40
2022-09-24T10:57:19.314Z,6.50
2022-09-24T10:59:53.821Z,10.63
2022-09-24T11:02:29.897Z,6.33
2022-09-24T11:04:59.356Z,8.33
2022-09-24T11:07:35.410Z,6.67
2022-09-24T11:10:10.250Z,6.50
2022-09-24T11:12:42.367Z,7.37
2022-09-24T11:15:20.313Z,6.70
2022-09-24T11:17:56.462Z,7.87
2022-09-24T11:20:30.242Z,10.03
2022-09-24T11:23:14.742Z,9.00
2022-09-24T11:25:48.448Z,12.03
2022-09-24T11:28:24.179Z,7.40
2022-09-24T11:30:58.101Z,8.00
2022-09-24T11:33:33.725Z,8.93
2022-09-24T11:36:16.334Z,8.13
2022-09-24T11:38:53.321Z,10.50
2022-09-24T11:41:29.559Z,6.23
2022-09-24T11:44:18.722Z,9.33
2022-09-24T11:46:52.665Z,9.40
2022-09-24T11:49:30.676Z,9.80
2022-09-24T11:52:02.375Z,9.37
2022-09-24T11:54:33.114Z,7.30
2022-09-24T11:57:04.339Z,10.00
2022-09-24T11:59:36.921Z,15.40
2022-09-24T12:02:09.590Z,12.83
2022-09-24T12:04:45.104Z,6.30
2022-09-24T12:07:15.396Z,8.60
2022-09-24T12:09:47.324Z,12.80
2022-09-24T12:12:18.421Z,9.50
2022-09-24T12:14:50.181Z,7.17
2022-09-24T12:17:20.093Z,8.10
2022-09-24T12:19:53.301Z,10.93
2022-09-24T12:22:23.049Z,10.50
2022-09-24T12:24:53.645Z,11.33
2022-09-24T12:27:24.549Z,7.17
2022-09-24T12:30:14.229Z,9.30
2022-09-24T12:32:55.913Z,9.63
2022-09-24T12:35:32.180Z,9.97
2022-09-24T12:38:04.212Z,9.30
2022-09-24T12:40:51.756Z,11.17
2022-09-24T12:43:25.383Z,8.27
2022-09-24T12:45:58.979Z,13.53
2022-09-24T12:48:28.502Z,10.97
2022-09-24T12:51:00.380Z,11.20
2022-09-24T12:53:31.984Z,14.23
2022-09-24T12:56:00.950Z,12.03
2022-09-24T12:58:32.400Z,10.70
2022-09-24T13:01:07.870Z,13.90
2022-09-24T13:03:37.212Z,10.70
2022-09-24T13:06:21.564Z,12.93
2022-09-24T13:08:50.793Z,11.03
2022-09-24T13:11:30.860Z,10.80
2022-09-24T13:14:02.476Z,14.53
2022-09-24T13:16:33.060Z,13.00
2022-09-24T13:19:03.221Z,13.00
2022-09-24T13:21:33.985Z,12.47
2022-09-24T13:24:12.046Z,14.50
2022-09-24T13:26:40.862Z,12.17
2022-09-24T13:29:23.773Z,12.10
2022-09-24T13:31:55.935Z,14.57
2022-09-24T13:34:28.056Z,11.93
2022-09-24T13:37:00.977Z,12.07
2022-09-24T13:39:40.408Z,15.30
2022-09-24T13:42:17.466Z,13.70
2022-09-24T13:44:48.768Z,11.60
2022-09-24T13:47:19.168Z,13.70
2022-09-24T13:49:50.989Z,18.73
2022-09-24T13:52:33.883Z,12.33
2022-09-24T13:55:10.015Z,11.83
2022-09-24T13:57:44.776Z,14.60
2022-09-24T14:00:37.462Z,11.93
2022-09-24T14:03:20.731Z,13.97
2022-09-24T14:05:51.834Z,14.60
2022-09-24T14:08:23.310Z,13.67
2022-09-24T14:10:52.588Z,15.13
2022-09-24T14:13:28.346Z,19.13
2022-09-24T14:16:23.382Z,19.93
2022-09-24T14:19:02.415Z,15.67
2022-09-24T14:21:34.533Z,14.70
2022-09-24T14:24:05.169Z,19.70
2022-09-24T14:26:35.906Z,15.03
2022-09-24T14:29:07.605Z,15.47
2022-09-24T14:31:43.750Z,14.30
2022-09-24T14:34:22.277Z,19.00
2022-09-24T14:36:57.740Z,19.40
2022-09-24T14:39:29.816Z,27.27
2022-09-24T14:42:00.288Z,20.90
2022-09-24T14:44:32.885Z,24.33
2022-09-24T14:47:02.734Z,20.00
2022-09-24T14:49:32.632Z,24.33
2022-09-24T14:52:03.723Z,21.40
2022-09-24T14:54:37.737Z,26.80
2022-09-24T14:57:12.433Z,20.37
2022-09-24T14:59:42.952Z,21.80
2022-09-24T15:02:17.521Z,19.37
2022-09-24T15:04:50.717Z,18.87
2022-09-24T15:07:20.683Z,25.50
2022-09-24T15:09:52.605Z,28.27
2022-09-24T15:12:25.115Z,25.40
2022-09-24T15:14:56.069Z,21.60
2022-09-24T15:17:27.131Z,29.13
2022-09-24T15:19:57.871Z,26.57
2022-09-24T15:22:26.867Z,25.30
2022-09-24T15:25:01.598Z,26.80
2022-09-24T15:27:32.473Z,26.20
2022-09-24T15:30:02.372Z,32.30
2022-09-24T15:32:32.485Z,26.27
2022-09-24T15:35:02.326Z,26.07
2022-09-24T15:37:32.169Z,47.63
2022-09-24T15:40:07.852Z,26.87
2022-09-24T15:42:36.644Z,30.70
2022-09-24T15:45:11.240Z,38.77
2022-09-24T15:47:40.008Z,26.70
2022-09-24T15:50:09.602Z,33.60
2022-09-24T15:52:43.394Z,30.30
2022-09-24T15:55:16.150Z,30.83
2022-09-24T15:57:44.866Z,33.37
2022-09-24T16:00:18.358Z,29.37
2022-09-24T16:02:49.681Z,27.53
2022-09-24T16:05:18.789Z,31.20
2022-09-24T16:07:47.806Z,30.67
2022-09-24T16:10:18.026Z,30.17
2022-09-24T16:12:46.654Z,26.27
2022-09-24T16:15:15.849Z,30.03
2022-09-24T16:17:45.037Z,32.07
2022-09-24T16:20:13.912Z,35.67
2022-09-24T16:22:43.282Z,38.37
2022-09-24T16:25:12.514Z,36.23
2022-09-24T16:27:42.514Z,49.57
2022-09-24T16:30:12.267Z,36.60
2022-09-24T16:32:41.119Z,29.40
2022-09-24T16:35:13.267Z,31.40
2022-09-24T16:37:42.194Z,32.90
2022-09-24T16:40:12.124Z,29.30
2022-09-24T16:42:42.179Z,27.70
2022-09-24T16:45:12.619Z,29.30
2022-09-24T16:47:42.696Z,32.50
2022-09-24T16:50:11.568Z,29.10
2022-09-24T16:52:40.345Z,27.20
2022-09-24T16:55:09.862Z,27.80
2022-09-24T16:57:39.895Z,27.90
2022-09-24T17:00:11.891Z,28.80
2022-09-24T17:02:40.649Z,29.90
2022-09-24T17:05:09.876Z,25.00
2022-09-24T17:07:39.004Z,28.73
2022-09-24T17:10:15.510Z,27.73
2022-09-24T17:12:45.830Z,31.80
2022-09-24T17:15:16.446Z,25.13
2022-09-24T17:17:49.982Z,23.83
2022-09-24T17:20:19.475Z,21.67
2022-09-24T17:22:49.891Z,26.30
2022-09-24T17:25:18.806Z,24.83
2022-09-24T17:27:47.602Z,27.00
2022-09-24T17:30:18.079Z,24.90
2022-09-24T17:32:47.611Z,24.83
2022-09-24T17:35:16.839Z,24.70
2022-09-24T17:37:45.731Z,25.13
2022-09-24T17:40:19.903Z,30.33
2022-09-24T17:42:52.975Z,28.37
2022-09-24T17:45:23.110Z,24.90
2022-09-24T17:47:58.207Z,26.07
2022-09-24T17:50:28.539Z,32.23
2022-09-24T17:52:57.639Z,26.43
2022-09-24T17:55:26.928Z,27.57
2022-09-24T17:57:55.552Z,25.17
2022-09-24T18:00:25.547Z,24.77
2022-09-24T18:02:55.853Z,22.83
2022-09-24T18:05:24.602Z,26.03
2022-09-24T18:07:53.328Z,25.70
2022-09-24T18:10:21.969Z,22.93
2022-09-24T18:12:52.818Z,24.67
2022-09-24T18:15:22.468Z,25.20
2022-09-24T18:17:53.440Z,24.17
2022-09-24T18:20:22.037Z,21.63
2022-09-24T18:22:50.852Z,21.07
2022-09-24T18:25:19.400Z,23.93
2022-09-24T18:27:48.012Z,25.17
2022-09-24T18:30:16.742Z,22.37
2022-09-24T18:32:46.742Z,20.43
2022-09-24T18:35:16.843Z,19.93
2022-09-24T18:37:45.537Z,19.30
2022-09-24T18:40:14.271Z,19.87
2022-09-24T18:42:43.383Z,19.43
2022-09-24T18:45:12.643Z,20.90
2022-09-24T18:47:41.532Z,18.70
2022-09-24T18:50:11.295Z,20.73
2022-09-24T18:52:41.683Z,23.00
2022-09-24T18:55:10.980Z,27.90
2022-09-24T18:57:39.708Z,25.87
2022-09-24T19:00:29.443Z,27.57
2022-09-24T19:02:58.080Z,20.70
2022-09-24T19:05:26.990Z,22.67
2022-09-24T19:07:59.663Z,22.20
2022-09-24T19:10:29.928Z,23.37
2022-09-24T19:12:58.589Z,24.23
2022-09-24T19:15:27.183Z,19.77
2022-09-24T19:17:55.966Z,21.23
2022-09-24T19:20:24.602Z,20.43
2022-09-24T19:23:00.229Z,20.03
2022-09-24T19:25:32.885Z,24.80
2022-09-24T19:28:01.953Z,20.37
2022-09-24T19:30:30.832Z,19.43
2022-09-24T19:33:00.942Z,20.23
2022-09-24T19:35:30.222Z,23.30
2022-09-24T19:37:59.450Z,23.70
2022-09-24T19:40:28.101Z,21.03
2022-09-24T19:42:58.403Z,18.03
2022-09-24T19:45:27.395Z,19.90
2022-09-24T19:47:56.549Z,30.40
2022-09-24T19:50:25.361Z,27.47
2022-09-24T19:52:55.884Z,22.13
2022-09-24T19:55:28.386Z,30.97
2022-09-24T19:58:01.197Z,27.47
2022-09-24T20:00:29.860Z,22.60
2022-09-24T20:02:59.306Z,20.00
2022-09-24T20:05:27.870Z,19.20
2022-09-24T20:07:56.836Z,21.47
2022-09-24T20:10:25.539Z,21.87
2022-09-24T20:12:54.615Z,19.63
2022-09-24T20:15:25.229Z,23.97
2022-09-24T20:18:01.293Z,24.67
2022-09-24T20:20:33.091Z,24.70
2022-09-24T20:23:10.981Z,29.57
2022-09-24T20:26:09.063Z,31.67
2022-09-24T20:28:37.844Z,23.37
2022-09-24T20:31:12.377Z,23.53
2022-09-24T20:33:44.765Z,20.57
2022-09-24T20:36:16.519Z,24.10
2022-09-24T20:38:47.233Z,21.40
2022-09-24T20:41:17.489Z,27.57
2022-09-24T20:43:46.726Z,21.50
2022-09-24T20:46:18.729Z,23.47
2022-09-24T20:48:47.882Z,20.37
2022-09-24T20:51:18.285Z,20.33
2022-09-24T20:53:50.406Z,22.93
2022-09-24T20:56:21.465Z,23.13
2022-09-24T20:58:52.072Z,36.30
2022-09-24T21:01:25.079Z,24.83
2022-09-24T21:03:55.114Z,24.20
2022-09-24T21:06:27.196Z,22.47
2022-09-24T21:08:58.886Z,22.90
2022-09-24T21:11:37.379Z,23.37
2022-09-24T21:14:06.266Z,25.73
2022-09-24T21:16:41.125Z,24.13
2022-09-24T21:19:09.820Z,24.33
2022-09-24T21:21:41.362Z,25.03
2022-09-24T21:24:12.245Z,33.67
2022-09-24T21:26:41.519Z,30.57
2022-09-24T21:29:13.063Z,29.90
2022-09-24T21:31:45.885Z,27.30
2022-09-24T21:34:15.824Z,28.63
2022-09-24T21:36:46.712Z,26.90
2022-09-24T21:39:17.010Z,31.97
2022-09-24T21:41:49.996Z,31.10
2022-09-24T21:44:19.673Z,30.83
2022-09-24T21:46:52.311Z,33.17
2022-09-24T21:49:23.012Z,31.83
2022-09-24T21:51:57.949Z,29.63
2022-09-24T21:54:26.611Z,36.27
2022-09-24T21:56:55.568Z,33.03
2022-09-24T21:59:42.030Z,30.47
2022-09-24T22:02:13.600Z,39.13
2022-09-24T22:04:44.541Z,31.37
2022-09-24T22:07:16.199Z,32.00
2022-09-24T22:09:45.190Z,34.93
2022-09-24T22:12:14.149Z,33.03
2022-09-24T22:14:44.985Z,33.23
2022-09-24T22:17:17.569Z,31.33
2022-09-24T22:19:46.387Z,34.40
2022-09-24T22:22:15.376Z,29.37
2022-09-24T22:24:44.035Z,32.07
2022-09-24T22:27:12.770Z,34.40
2022-09-24T22:29:41.396Z,41.20
2022-09-24T22:32:10.174Z,33.57
2022-09-24T22:34:57.911Z,35.20
2022-09-24T22:37:27.171Z,34.27
2022-09-24T22:39:56.180Z,36.27
2022-09-24T22:42:25.734Z,44.00
2022-09-24T22:44:58.036Z,38.53
2022-09-24T22:47:40.833Z,41.90
2022-09-24T22:50:16.027Z,38.40
2022-09-24T22:52:44.881Z,33.60
2022-09-24T22:55:15.495Z,41.97
2022-09-24T22:57:47.947Z,41.37
2022-09-24T23:00:19.376Z,39.53
2022-09-24T23:02:54.480Z,36.17
2022-09-24T23:05:28.953Z,42.97
2022-09-24T23:07:57.892Z,38.00
2022-09-24T23:10:30.083Z,44.50
2022-09-24T23:12:58.845Z,46.20
2022-09-24T23:15:27.928Z,41.80
2022-09-24T23:17:56.992Z,45.27
2022-09-24T23:20:27.477Z,40.63
2022-09-24T23:22:56.589Z,38.97
2022-09-24T23:25:25.790Z,44.40
2022-09-24T23:27:55.383Z,38.03
2022-09-24T23:30:24.209Z,49.10
2022-09-24T23:32:53.062Z,43.07
2022-09-24T23:35:23.212Z,54.07
2022-09-24T23:37:53.212Z,48.50
2022-09-24T23:40:21.843Z,51.63
2022-09-24T23:42:50.885Z,50.30
2022-09-24T23:45:19.888Z,52.90
2022-09-24T23:47:48.633Z,49.60
2022-09-24T23:50:17.463Z,48.60
2022-09-24T23:52:46.125Z,47.97
2022-09-24T23:55:16.471Z,50.03
2022-09-24T23:57:45.212Z,57.37
